Time;durP1;ratioP1;P1;durP2;ratioP2;P2;SDS_P1;SDS_P2;PMS_P1;PMS_P2;Temp;Humidity;BMP_temperature;BMP_pressure;BME280_temperature;BME280_humidity;BME280_pressure;Samples;Min_cycle;Max_cycle;Signal;HPM_P1;HPM_P2
2023/07/22 00:00:26;;;;;;;5.00;2.80;;;15.80;99.90;;;;;;10437631;28;20226;-81
2023/07/22 00:05:47;;;;;;;3.35;2.08;;;15.80;1.00;;;;;;10456100;28;20203;-78
2023/07/22 00:11:09;;;;;;;3.10;2.00;;;15.80;1.00;;;;;;10440176;28;20399;-82
2023/07/22 00:16:30;;;;;;;1.92;1.83;;;15.80;45.60;;;;;;10437553;28;20204;-79
2023/07/22 00:21:52;;;;;;;2.65;2.05;;;15.80;1.00;;;;;;10439017;28;20215;-79
2023/07/22 00:27:13;;;;;;;2.25;1.88;;;15.70;1.00;;;;;;10439581;28;20189;-82
2023/07/22 00:32:39;;;;;;;2.83;2.15;;;15.80;1.00;;;;;;10420331;28;20218;-81
2023/07/22 00:38:01;;;;;;;2.25;1.92;;;15.80;1.00;;;;;;10417021;28;20196;-79
2023/07/22 00:43:22;;;;;;;2.60;1.98;;;15.80;99.90;;;;;;10425843;28;20419;-79
2023/07/22 00:48:45;;;;;;;2.92;1.80;;;15.80;1.00;;;;;;10447551;28;20202;-79
2023/07/22 00:54:07;;;;;;;2.15;1.77;;;15.70;1.00;;;;;;10424124;28;20230;-80
2023/07/22 00:59:28;;;;;;;4.93;2.40;;;15.70;99.90;;;;;;10403224;28;20214;-79
2023/07/22 01:04:51;;;;;;;3.53;1.65;;;15.70;99.90;;;;;;10435690;28;20232;-77
2023/07/22 01:10:14;;;;;;;2.33;1.45;;;15.60;1.00;;;;;;10446006;28;20226;-77
2023/07/22 01:15:38;;;;;;;2.65;1.90;;;15.60;1.00;;;;;;10425802;28;20245;-80
2023/07/22 01:20:59;;;;;;;4.63;1.77;;;15.60;99.90;;;;;;10422445;28;20271;-79
2023/07/22 01:26:21;;;;;;;3.80;1.55;;;15.50;1.00;;;;;;10435833;28;20278;-78
2023/07/22 01:31:43;;;;;;;1.80;1.40;;;15.40;1.00;;;;;;10421810;28;20221;-78
2023/07/22 01:37:05;;;;;;;2.53;1.60;;;15.50;1.00;;;;;;10437277;28;20473;-79
2023/07/22 01:42:26;;;;;;;1.55;1.45;;;15.40;99.90;;;;;;10421220;28;20230;-78
2023/07/22 01:47:48;;;;;;;4.95;1.80;;;15.40;1.00;;;;;;10436105;28;20545;-79
2023/07/22 01:53:09;;;;;;;2.67;2.17;;;15.40;1.00;;;;;;10436442;28;20333;-80
2023/07/22 01:58:31;;;;;;;3.63;2.22;;;15.30;99.90;;;;;;10427705;28;20198;-77
2023/07/22 02:03:52;;;;;;;4.60;2.58;;;15.30;1.00;;;;;;10435962;28;20196;-78
2023/07/22 02:09:13;;;;;;;3.47;2.47;;;15.20;99.90;;;;;;10420591;28;20200;-79
2023/07/22 02:14:36;;;;;;;2.22;1.98;;;15.10;1.00;;;;;;10395149;28;20237;-78
2023/07/22 02:19:58;;;;;;;2.20;1.83;;;15.20;99.90;;;;;;10380016;28;20205;-77
2023/07/22 02:25:20;;;;;;;2.00;1.60;;;15.30;1.00;;;;;;10424363;28;20196;-79
2023/07/22 02:30:41;;;;;;;3.15;1.90;;;15.30;99.90;;;;;;10430476;28;20214;-83
2023/07/22 02:36:02;;;;;;;2.05;1.58;;;15.40;99.90;;;;;;10434676;28;20247;-77
2023/07/22 02:41:24;;;;;;;4.05;2.17;;;15.40;1.00;;;;;;10434218;28;20477;-77
2023/07/22 02:46:45;;;;;;;4.45;2.55;;;15.30;99.90;;;;;;10420213;28;20405;-78
2023/07/22 02:52:07;;;;;;;2.15;1.80;;;15.40;33.80;;;;;;10431937;28;20221;-81
2023/07/22 02:57:28;;;;;;;2.70;1.95;;;15.40;1.00;;;;;;10394405;28;20216;-81
2023/07/22 03:02:54;;;;;;;3.10;2.58;;;15.40;1.00;;;;;;10398600;28;20411;-77
2023/07/22 03:08:17;;;;;;;2.53;2.00;;;15.40;1.00;;;;;;10422644;28;20215;-77
2023/07/22 03:13:38;;;;;;;3.17;2.30;;;15.50;99.90;;;;;;10386949;28;20227;-79
2023/07/22 03:18:59;;;;;;;3.05;2.30;;;15.50;1.00;;;;;;10400550;28;20192;-82
2023/07/22 03:24:21;;;;;;;4.03;2.55;;;15.50;99.90;;;;;;10426210;28;20248;-78
2023/07/22 03:29:42;;;;;;;2.25;1.98;;;15.40;99.90;;;;;;10422018;28;20208;-79
2023/07/22 03:35:04;;;;;;;4.32;2.00;;;15.50;99.90;;;;;;10441385;28;20217;-78
2023/07/22 03:40:30;;;;;;;2.95;2.20;;;15.40;99.90;;;;;;10437734;28;20211;-77
2023/07/22 03:45:51;;;;;;;2.85;2.30;;;15.40;1.00;;;;;;10441378;28;20285;-87
2023/07/22 03:51:12;;;;;;;4.93;2.38;;;15.40;1.00;;;;;;10440302;28;20196;-77
2023/07/22 03:56:41;;;;;;;2.70;2.13;;;15.30;99.90;;;;;;10412263;28;20223;-86
2023/07/22 04:02:03;;;;;;;1.85;1.73;;;15.40;1.00;;;;;;10425609;28;20204;-80
2023/07/22 04:07:26;;;;;;;2.25;1.77;;;15.40;1.00;;;;;;10439780;28;20197;-77
2023/07/22 04:12:47;;;;;;;2.45;2.08;;;15.40;1.00;;;;;;10436383;28;20226;-77
2023/07/22 04:18:08;;;;;;;2.58;2.38;;;15.40;1.00;;;;;;10440183;28;20198;-79
2023/07/22 04:23:32;;;;;;;3.20;2.33;;;15.50;5.80;;;;;;10453662;28;20302;-80
2023/07/22 04:28:54;;;;;;;2.53;2.10;;;15.50;1.00;;;;;;10434970;28;20497;-79
2023/07/22 04:34:15;;;;;;;4.53;2.75;;;15.60;87.70;;;;;;10439061;28;20230;-79
2023/07/22 04:39:37;;;;;;;4.90;2.70;;;15.70;1.00;;;;;;10435808;28;20254;-78
2023/07/22 04:44:58;;;;;;;3.35;3.05;;;15.80;1.00;;;;;;10438969;28;20233;-79
2023/07/22 04:50:19;;;;;;;3.63;3.28;;;16.10;99.90;;;;;;10423424;28;20505;-77
2023/07/22 04:55:43;;;;;;;5.05;3.90;;;16.10;1.00;;;;;;10437290;28;20230;-78
2023/07/22 05:01:04;;;;;;;4.65;3.72;;;16.20;99.90;;;;;;10438382;28;20190;-78
2023/07/22 05:06:25;;;;;;;7.13;3.80;;;16.20;1.00;;;;;;10438294;28;20375;-81
2023/07/22 05:11:46;;;;;;;5.70;4.32;;;16.10;1.00;;;;;;10441606;28;20293;-77
2023/07/22 05:17:08;;;;;;;5.72;5.00;;;16.10;99.90;;;;;;10436170;28;20405;-77
2023/07/22 05:22:29;;;;;;;6.40;4.15;;;16.10;99.90;;;;;;10453153;28;20204;-78
2023/07/22 05:27:51;;;;;;;5.60;3.97;;;16.10;1.00;;;;;;10434002;28;20205;-78
2023/07/22 05:33:12;;;;;;;5.13;4.25;;;16.20;99.90;;;;;;10403539;28;20253;-78
2023/07/22 05:38:33;;;;;;;4.60;4.03;;;16.20;99.90;;;;;;10420563;28;20489;-83
2023/07/22 05:43:55;;;;;;;4.38;3.70;;;16.20;99.90;;;;;;10433675;28;20243;-78
2023/07/22 05:49:16;;;;;;;5.25;4.15;;;16.30;1.00;;;;;;10435975;28;20278;-78
2023/07/22 05:54:38;;;;;;;5.93;4.35;;;16.30;1.00;;;;;;10435847;28;20239;-82
2023/07/22 05:59:59;;;;;;;8.23;4.13;;;16.40;99.90;;;;;;10443931;28;20234;-84
2023/07/22 06:05:31;;;;;;;5.28;4.38;;;16.40;1.00;;;;;;10399303;28;20315;-81
2023/07/22 06:10:53;;;;;;;4.70;3.42;;;16.40;84.80;;;;;;10393812;28;20199;-80
2023/07/22 06:16:14;;;;;;;5.43;3.72;;;16.40;99.90;;;;;;10434185;28;20230;-80
2023/07/22 06:21:35;;;;;;;3.60;3.30;;;16.40;1.00;;;;;;10435824;28;20240;-77
2023/07/22 06:26:56;;;;;;;4.13;3.15;;;16.50;99.90;;;;;;10434385;28;20235;-79
2023/07/22 06:32:18;;;;;;;6.25;3.63;;;16.60;1.00;;;;;;10431244;28;20247;-77
2023/07/22 06:37:40;;;;;;;4.47;3.45;;;16.80;99.90;;;;;;10439706;28;20206;-83
2023/07/22 06:43:01;;;;;;;6.90;3.00;;;17.50;1.00;;;;;;10428469;28;20203;-85
2023/07/22 06:48:23;;;;;;;3.30;2.60;;;18.10;1.00;;;;;;10415074;28;20225;-78
2023/07/22 06:53:44;;;;;;;3.92;3.17;;;18.70;1.00;;;;;;10402085;28;20221;-79
2023/07/22 06:59:05;;;;;;;7.60;3.22;;;18.70;99.90;;;;;;10428019;28;20592;-79
2023/07/22 07:04:27;;;;;;;2.88;2.53;;;18.70;1.00;;;;;;10442593;28;20196;-79
2023/07/22 07:09:48;;;;;;;4.47;3.22;;;18.70;57.50;;;;;;10441082;28;20188;-78
2023/07/22 07:15:10;;;;;;;3.38;2.75;;;18.60;1.00;;;;;;10440260;28;20223;-79
2023/07/22 07:20:32;;;;;;;3.63;2.67;;;18.50;1.00;;;;;;10442416;28;20239;-80
2023/07/22 07:25:53;;;;;;;3.53;2.30;;;18.30;99.90;;;;;;10427056;28;20284;-79
2023/07/22 07:31:15;;;;;;;3.78;2.42;;;18.50;1.00;;;;;;10440227;28;20204;-78
2023/07/22 07:36:36;;;;;;;5.43;3.20;;;19.00;1.00;;;;;;10441261;28;20216;-79
2023/07/22 07:41:58;;;;;;;3.20;1.92;;;19.90;99.90;;;;;;10440673;28;20219;-79
2023/07/22 07:47:19;;;;;;;3.08;2.10;;;20.00;85.20;;;;;;10438222;28;20290;-79
2023/07/22 07:52:40;;;;;;;2.67;1.60;;;19.90;1.00;;;;;;10441051;28;20220;-79
2023/07/22 07:58:01;;;;;;;2.38;1.60;;;19.60;1.00;;;;;;10454825;28;20574;-78
2023/07/22 08:03:23;;;;;;;1.70;1.60;;;19.60;1.00;;;;;;10440514;28;20412;-82
2023/07/22 08:08:45;;;;;;;4.90;1.90;;;19.90;1.00;;;;;;10439986;28;20200;-77
2023/07/22 08:14:07;;;;;;;2.35;1.50;;;20.10;1.00;;;;;;10454457;28;20223;-77
2023/07/22 08:19:29;;;;;;;1.65;1.15;;;20.00;1.00;;;;;;10440104;28;20184;-77
2023/07/22 08:24:50;;;;;;;1.85;1.25;;;20.60;1.00;;;;;;10447257;28;20199;-77
2023/07/22 08:30:11;;;;;;;2.83;1.20;;;20.40;1.00;;;;;;10436777;28;20443;-76
2023/07/22 08:35:36;;;;;;;2.45;1.30;;;20.00;1.00;;;;;;10439441;28;20295;-76
2023/07/22 08:40:58;;;;;;;4.25;1.45;;;19.60;1.00;;;;;;10437068;28;20193;-77
2023/07/22 08:46:25;;;;;;;1.92;1.52;;;19.50;1.00;;;;;;10423188;28;20429;-78
2023/07/22 08:51:47;;;;;;;2.83;1.60;;;20.10;1.00;;;;;;10437917;28;20199;-80
2023/07/22 08:57:10;;;;;;;1.70;1.40;;;21.10;1.00;;;;;;10453140;28;20251;-78
2023/07/22 09:02:35;;;;;;;6.97;1.67;;;22.10;1.00;;;;;;10451290;28;20211;-79
2023/07/22 09:07:58;;;;;;;1.90;1.50;;;22.10;1.00;;;;;;10436811;28;20220;-80
2023/07/22 09:13:21;;;;;;;1.85;1.00;;;22.40;99.90;;;;;;10437550;28;20227;-79
2023/07/22 09:18:42;;;;;;;4.30;1.27;;;22.00;99.90;;;;;;10451349;28;20211;-79
2023/07/22 09:24:23;;;;;;;3.15;1.50;;;21.20;99.90;;;;;;10436911;28;20192;-79
2023/07/22 09:29:47;;;;;;;2.05;1.42;;;20.50;99.90;;;;;;10435108;28;20193;-79
2023/07/22 09:35:09;;;;;;;5.22;1.75;;;20.00;1.00;;;;;;10451561;28;20233;-85
2023/07/22 09:40:30;;;;;;;11.05;2.33;;;19.60;1.00;;;;;;10422141;28;20196;-81
2023/07/22 09:45:53;;;;;;;4.95;1.65;;;19.00;1.00;;;;;;10435732;28;20227;-81
2023/07/22 09:51:16;;;;;;;13.63;3.10;;;18.40;1.00;;;;;;10436815;28;20189;-84
2023/07/22 09:56:46;;;;;;;2.78;1.98;;;18.00;1.00;;;;;;10436208;28;20223;-79
2023/07/22 10:02:10;;;;;;;5.10;2.03;;;17.60;1.00;;;;;;10434215;28;20517;-79
2023/07/22 10:07:34;;;;;;;4.70;2.72;;;17.60;1.00;;;;;;10434997;28;20221;-79
2023/07/22 10:12:57;;;;;;;2.80;1.95;;;18.60;1.00;;;;;;10450620;28;20216;-78
2023/07/22 10:18:19;;;;;;;2.67;1.60;;;19.40;1.00;;;;;;10434741;28;20525;-81
2023/07/22 10:23:42;;;;;;;1.83;1.52;;;20.20;1.00;;;;;;10451043;28;20219;-80
2023/07/22 10:29:03;;;;;;;2.05;1.85;;;21.00;1.00;;;;;;10435349;28;20380;-78
2023/07/22 10:34:24;;;;;;;4.25;1.40;;;21.50;1.00;;;;;;10422169;28;20758;-79
2023/07/22 10:39:45;;;;;;;3.30;1.23;;;21.10;1.00;;;;;;10435383;28;20200;-81
2023/07/22 10:45:27;;;;;;;1.48;1.05;;;20.80;99.90;;;;;;10420419;28;20262;-79
2023/07/22 10:50:53;;;;;;;2.25;1.00;;;20.70;1.00;;;;;;10433928;28;20257;-81
2023/07/22 10:56:19;;;;;;;1.23;1.13;;;21.20;1.00;;;;;;10450637;28;20228;-79
2023/07/22 11:01:45;;;;;;;1.52;1.00;;;21.50;1.00;;;;;;10435089;28;20234;-80
2023/07/22 11:07:07;;;;;;;1.35;1.20;;;22.30;1.00;;;;;;10434444;28;20215;-80
2023/07/22 11:12:28;;;;;;;1.52;1.15;;;22.60;99.90;;;;;;10425742;28;20208;-79
2023/07/22 11:17:50;;;;;;;2.15;1.15;;;22.50;99.90;;;;;;10401437;28;20228;-80
2023/07/22 11:23:11;;;;;;;1.67;1.20;;;22.30;99.90;;;;;;10421841;28;20203;-82
2023/07/22 11:28:32;;;;;;;2.88;1.00;;;21.80;99.90;;;;;;10457520;28;20238;-79
2023/07/22 11:33:57;;;;;;;2.50;1.00;;;21.40;1.00;;;;;;10420865;28;20298;-78
2023/07/22 11:39:20;;;;;;;2.30;1.30;;;21.40;99.90;;;;;;10456887;28;20227;-78
2023/07/22 11:44:42;;;;;;;2.13;1.15;;;21.60;99.90;;;;;;10440740;28;20308;-79
2023/07/22 11:50:04;;;;;;;1.33;1.20;;;21.50;99.90;;;;;;10400021;28;20205;-79
2023/07/22 11:55:25;;;;;;;2.53;1.60;;;21.40;99.90;;;;;;10432317;28;20228;-78
2023/07/22 12:01:09;;;;;;;4.82;1.98;;;20.50;99.90;;;;;;10439941;28;20243;-78
2023/07/22 12:06:31;;;;;;;1.70;1.60;;;19.60;1.00;;;;;;10454881;28;20216;-79
2023/07/22 12:11:59;;;;;;;2.83;1.95;;;;;;;;;;10403568;28;20307;-80
2023/07/22 12:17:20;;;;;;;5.45;1.92;;;18.60;99.90;;;;;;10398930;28;20291;-79
2023/07/22 12:22:42;;;;;;;2.45;1.80;;;18.70;1.00;;;;;;10424437;28;20557;-78
2023/07/22 12:28:04;;;;;;;3.15;1.77;;;19.00;1.00;;;;;;10441996;28;20196;-79
2023/07/22 12:33:26;;;;;;;1.88;1.50;;;19.80;99.90;;;;;;10439472;28;20220;-78
2023/07/22 12:38:47;;;;;;;1.63;1.40;;;20.30;1.00;;;;;;10450222;28;20208;-79
2023/07/22 12:44:08;;;;;;;4.57;1.98;;;20.40;1.00;;;;;;10454862;28;20286;-80
2023/07/22 12:49:30;;;;;;;2.40;1.60;;;20.80;1.00;;;;;;10422842;28;20192;-80
2023/07/22 12:54:51;;;;;;;2.28;1.75;;;21.50;1.00;;;;;;10436959;28;20254;-80
2023/07/22 13:00:13;;;;;;;9.55;2.53;;;21.40;1.00;;;;;;10438369;28;20193;-78
2023/07/22 13:05:34;;;;;;;6.68;2.35;;;20.80;1.00;;;;;;10436212;28;20224;-79
2023/07/22 13:10:55;;;;;;;3.33;2.08;;;20.40;99.90;;;;;;10438241;28;20533;-80
2023/07/22 13:16:16;;;;;;;3.47;2.28;;;20.90;99.90;;;;;;10438079;28;20220;-83
2023/07/22 13:21:37;;;;;;;2.58;1.92;;;20.70;99.90;;;;;;10435753;28;20403;-79
2023/07/22 13:26:59;;;;;;;2.28;1.92;;;20.30;1.80;;;;;;10436134;28;20196;-79
2023/07/22 13:32:20;;;;;;;2.35;1.90;;;19.90;99.90;;;;;;10409743;28;20204;-78
2023/07/22 13:37:42;;;;;;;1.67;1.55;;;19.50;1.00;;;;;;10426371;28;20234;-78
2023/07/22 13:43:03;;;;;;;1.95;1.83;;;19.30;1.00;;;;;;10436968;28;20487;-78
2023/07/22 13:48:24;;;;;;;2.40;2.00;;;19.20;1.00;;;;;;10450772;28;20262;-78
2023/07/22 13:53:46;;;;;;;7.18;2.22;;;18.90;99.90;;;;;;10435998;28;20220;-79
2023/07/22 13:59:07;;;;;;;5.97;2.30;;;18.80;1.00;;;;;;10436133;28;20200;-78
2023/07/22 14:04:28;;;;;;;3.13;1.80;;;18.80;1.00;;;;;;10434981;28;20204;-79
2023/07/22 14:09:49;;;;;;;2.42;1.73;;;18.90;1.00;;;;;;10431706;28;20197;-79
2023/07/22 14:15:11;;;;;;;3.88;1.88;;;19.10;1.00;;;;;;10379994;28;20228;-81
2023/07/22 14:20:33;;;;;;;3.25;2.33;;;19.60;1.00;;;;;;10413206;28;20200;-81
2023/07/22 14:25:54;;;;;;;4.30;1.70;;;19.80;99.90;;;;;;10436032;28;20579;-78
2023/07/22 14:31:15;;;;;;;2.00;1.63;;;20.20;99.90;;;;;;10416429;28;20284;-81
2023/07/22 14:36:36;;;;;;;2.45;2.08;;;19.90;1.00;;;;;;10426751;28;20254;-81
2023/07/22 14:41:58;;;;;;;5.22;2.13;;;19.60;1.00;;;;;;10440745;28;20188;-80
2023/07/22 14:47:19;;;;;;;2.88;1.90;;;19.30;99.90;;;;;;10448941;28;20240;-81
2023/07/22 14:52:42;;;;;;;4.32;2.20;;;19.10;99.90;;;;;;10434121;28;20235;-77
2023/07/22 14:58:05;;;;;;;3.17;2.00;;;18.90;1.00;;;;;;10439485;28;20199;-78
2023/07/22 15:03:26;;;;;;;3.75;2.53;;;18.70;43.40;;;;;;10440759;28;20208;-75
2023/07/22 15:08:49;;;;;;;2.75;1.70;;;;;;;;;;10429999;28;20200;-78
2023/07/22 15:14:10;;;;;;;1.30;1.20;;;18.10;1.00;;;;;;10400308;28;20227;-80
2023/07/22 15:19:32;;;;;;;2.88;1.48;;;17.60;99.90;;;;;;10403864;28;20194;-78
2023/07/22 15:24:53;;;;;;;2.22;1.52;;;17.40;1.00;;;;;;10450736;28;20428;-80
2023/07/22 15:30:16;;;;;;;3.33;1.95;;;17.30;1.00;;;;;;10440760;28;20245;-80
2023/07/22 15:35:37;;;;;;;4.30;1.63;;;17.30;99.90;;;;;;10441044;28;20229;-80
2023/07/22 15:40:58;;;;;;;2.85;1.65;;;17.40;1.00;;;;;;10434014;28;20229;-80
2023/07/22 15:46:19;;;;;;;3.70;1.92;;;17.40;1.00;;;;;;10441319;28;20236;-78
2023/07/22 15:51:40;;;;;;;4.80;2.00;;;17.50;7.30;;;;;;10440321;28;20194;-80
2023/07/22 15:57:02;;;;;;;1.90;1.55;;;17.40;1.00;;;;;;10439079;28;20530;-80
2023/07/22 16:02:23;;;;;;;3.65;2.08;;;17.40;1.00;;;;;;10440856;28;20492;-80
2023/07/22 16:07:45;;;;;;;3.40;1.80;;;17.30;1.00;;;;;;10455329;28;20218;-81
2023/07/22 16:13:08;;;;;;;1.65;1.45;;;17.30;99.90;;;;;;10439345;28;20204;-79
2023/07/22 16:18:30;;;;;;;2.65;1.35;;;17.30;1.00;;;;;;10439524;28;20245;-80
2023/07/22 16:23:51;;;;;;;1.83;1.40;;;17.40;99.90;;;;;;10437360;28;20212;-81
2023/07/22 16:29:12;;;;;;;2.78;1.70;;;17.40;1.00;;;;;;10438530;28;20226;-84
2023/07/22 16:34:36;;;;;;;3.08;1.70;;;17.40;99.90;;;;;;10398865;28;20231;-84
2023/07/22 16:39:57;;;;;;;2.42;1.67;;;17.50;1.00;;;;;;10429212;28;20212;-79
2023/07/22 16:45:19;;;;;;;2.38;1.52;;;17.50;99.90;;;;;;10411190;28;20526;-78
2023/07/22 16:50:40;;;;;;;2.70;1.60;;;17.40;99.90;;;;;;10383002;28;20201;-86
2023/07/22 16:56:02;;;;;;;2.13;1.60;;;17.30;1.00;;;;;;10394323;28;20312;-79
2023/07/22 17:01:23;;;;;;;1.65;1.55;;;17.40;73.10;;;;;;10437805;28;20199;-79
2023/07/22 17:06:45;;;;;;;1.85;1.35;;;17.50;1.00;;;;;;10453756;28;20209;-78
2023/07/22 17:12:07;;;;;;;1.60;1.40;;;17.50;1.00;;;;;;10421266;28;20203;-79
2023/07/22 17:17:28;;;;;;;2.22;1.42;;;17.50;1.00;;;;;;10436985;28;20223;-79
2023/07/22 17:22:49;;;;;;;1.73;1.40;;;17.40;1.00;;;;;;10436552;28;20199;-79
2023/07/22 17:28:10;;;;;;;2.83;1.67;;;17.30;99.90;;;;;;10434748;28;20254;-78
2023/07/22 17:33:32;;;;;;;1.67;1.45;;;17.10;99.90;;;;;;10437262;28;20210;-78
2023/07/22 17:38:54;;;;;;;2.45;1.63;;;17.10;99.90;;;;;;10449275;28;20202;-79
2023/07/22 17:44:15;;;;;;;2.10;1.48;;;17.10;1.00;;;;;;10435837;28;20556;-81
2023/07/22 17:49:37;;;;;;;3.45;1.83;;;17.10;1.00;;;;;;10436966;28;20486;-80
2023/07/22 17:54:58;;;;;;;2.00;1.75;;;17.00;1.00;;;;;;10434464;28;20238;-82
2023/07/22 18:00:21;;;;;;;3.40;2.40;;;17.00;1.00;;;;;;10435860;28;20203;-79
2023/07/22 18:05:47;;;;;;;2.85;1.98;;;16.90;1.00;;;;;;10451712;28;20202;-78
2023/07/22 18:11:08;;;;;;;3.42;2.45;;;16.90;99.90;;;;;;10428217;28;20204;-78
2023/07/22 18:16:30;;;;;;;2.63;1.90;;;16.90;99.90;;;;;;10435215;28;20573;-82
2023/07/22 18:21:51;;;;;;;3.10;1.63;;;16.90;99.90;;;;;;10436048;28;20477;-79
2023/07/22 18:27:12;;;;;;;2.65;1.98;;;16.80;1.00;;;;;;10434727;28;20207;-83
2023/07/22 18:32:33;;;;;;;1.85;1.63;;;16.90;1.00;;;;;;10407144;28;20199;-81
2023/07/22 18:37:54;;;;;;;2.03;1.73;;;16.90;1.00;;;;;;10402892;28;20223;-80
2023/07/22 18:43:16;;;;;;;2.70;1.50;;;;;;;;;;10442893;28;20211;-78
2023/07/22 18:48:37;;;;;;;3.40;1.80;;;16.70;99.90;;;;;;10442325;28;20205;-79
2023/07/22 18:53:59;;;;;;;4.70;1.98;;;16.70;99.90;;;;;;10442176;28;20238;-80
2023/07/22 18:59:20;;;;;;;1.75;1.65;;;16.50;99.90;;;;;;10428396;28;20206;-81
2023/07/22 19:04:41;;;;;;;2.53;1.92;;;16.50;99.90;;;;;;10439577;28;20278;-78
2023/07/22 19:10:03;;;;;;;4.20;2.15;;;16.40;99.90;;;;;;10458332;28;20226;-78
2023/07/22 19:15:25;;;;;;;3.40;1.90;;;16.30;99.90;;;;;;10440024;28;20617;-81
2023/07/22 19:21:04;;;;;;;6.47;3.63;;;16.20;99.90;;;;;;10442212;28;20191;-77
2023/07/22 19:26:25;;;;;;;5.55;4.65;;;16.10;1.00;;;;;;10457396;28;20273;-79
2023/07/22 19:31:46;;;;;;;6.20;4.65;;;16.00;1.00;;;;;;10435688;28;20504;-79
2023/07/22 19:37:08;;;;;;;6.47;4.10;;;15.90;99.90;;;;;;10441559;28;20218;-87
2023/07/22 19:42:30;;;;;;;6.60;3.83;;;15.80;99.90;;;;;;10425221;28;20202;-79
2023/07/22 19:47:51;;;;;;;6.25;3.40;;;15.70;1.00;;;;;;10438845;28;20262;-78
2023/07/22 19:53:15;;;;;;;5.05;3.67;;;15.70;99.90;;;;;;10426625;28;20198;-80
2023/07/22 19:58:36;;;;;;;5.05;3.70;;;15.60;99.90;;;;;;10439508;28;20231;-82
2023/07/22 20:03:57;;;;;;;7.60;4.55;;;15.50;1.00;;;;;;10439783;28;20191;-78
2023/07/22 20:09:20;;;;;;;9.65;4.85;;;15.30;1.00;;;;;;10422940;28;20253;-81
2023/07/22 20:14:41;;;;;;;10.80;5.97;;;15.30;1.00;;;;;;10384515;28;20238;-79
2023/07/22 20:20:03;;;;;;;8.43;5.20;;;15.10;1.00;;;;;;10426602;28;20546;-84
2023/07/22 20:25:25;;;;;;;5.28;3.63;;;15.10;99.90;;;;;;10455939;28;20203;-80
2023/07/22 20:30:49;;;;;;;4.75;3.25;;;15.00;1.00;;;;;;10439801;28;20416;-88
2023/07/22 20:36:10;;;;;;;4.85;3.53;;;15.00;1.00;;;;;;10438820;28;20228;-84
2023/07/22 20:41:32;;;;;;;7.30;4.30;;;14.90;1.00;;;;;;10438894;28;20199;-82
2023/07/22 20:46:53;;;;;;;10.55;7.22;;;14.80;99.90;;;;;;10437353;28;20249;-82
2023/07/22 20:52:15;;;;;;;15.02;9.48;;;14.70;99.90;;;;;;10438698;28;20206;-78
2023/07/22 20:57:36;;;;;;;13.82;6.85;;;14.60;1.00;;;;;;10424154;28;20239;-79
2023/07/22 21:02:57;;;;;;;9.85;6.18;;;14.50;99.90;;;;;;10438641;28;20203;-80
2023/07/22 21:08:18;;;;;;;14.95;7.53;;;14.40;1.00;;;;;;10412223;28;20194;-79
2023/07/22 21:13:40;;;;;;;12.68;6.68;;;14.30;99.90;;;;;;10406720;28;20360;-78
2023/07/22 21:19:01;;;;;;;11.88;6.45;;;14.20;1.00;;;;;;10421692;28;20203;-80
2023/07/22 21:24:22;;;;;;;12.05;6.60;;;14.20;1.00;;;;;;10443751;28;20274;-78
2023/07/22 21:29:44;;;;;;;15.27;6.72;;;14.10;1.00;;;;;;10443257;28;20373;-78
2023/07/22 21:35:05;;;;;;;11.05;7.47;;;13.90;1.00;;;;;;10442193;28;20245;-78
2023/07/22 21:40:26;;;;;;;19.45;9.05;;;13.90;1.00;;;;;;10458437;28;20205;-79
2023/07/22 21:45:49;;;;;;;10.60;6.75;;;13.90;1.00;;;;;;10427978;28;20319;-77
2023/07/22 21:51:10;;;;;;;9.45;5.20;;;13.90;1.00;;;;;;10442073;28;20206;-78
2023/07/22 21:56:32;;;;;;;6.15;4.45;;;13.90;99.90;;;;;;10443517;28;20221;-78
2023/07/22 22:01:53;;;;;;;7.25;4.18;;;13.90;99.90;;;;;;10458319;28;20406;-81
2023/07/22 22:07:15;;;;;;;7.40;4.25;;;13.80;1.00;;;;;;10439408;28;20251;-78
2023/07/22 22:12:36;;;;;;;12.35;6.85;;;13.70;1.00;;;;;;10395750;28;20226;-78
2023/07/22 22:17:57;;;;;;;7.63;4.80;;;13.70;1.00;;;;;;10389366;28;20248;-78
2023/07/22 22:23:20;;;;;;;7.30;3.67;;;13.70;99.90;;;;;;10452376;28;20202;-80
2023/07/22 22:28:41;;;;;;;5.70;4.05;;;13.70;99.90;;;;;;10436634;28;20202;-78
2023/07/22 22:34:02;;;;;;;5.00;3.53;;;13.60;1.00;;;;;;10424330;28;20336;-79
2023/07/22 22:39:24;;;;;;;5.15;3.50;;;13.70;1.00;;;;;;10436185;28;20213;-77
2023/07/22 22:44:45;;;;;;;6.55;3.92;;;13.70;1.00;;;;;;10451131;28;20244;-83
2023/07/22 22:50:07;;;;;;;5.15;3.80;;;13.80;1.00;;;;;;10420153;28;20441;-78
2023/07/22 22:55:28;;;;;;;4.97;3.47;;;13.80;99.90;;;;;;10451227;28;20232;-78
2023/07/22 23:00:49;;;;;;;7.93;3.33;;;13.80;1.00;;;;;;10420473;28;20489;-78
2023/07/22 23:06:20;;;;;;;3.45;2.90;;;13.90;99.90;;;;;;10434977;28;20206;-77
2023/07/22 23:11:41;;;;;;;3.30;2.83;;;13.90;1.00;;;;;;10399118;28;20219;-77
2023/07/22 23:17:03;;;;;;;6.18;3.03;;;13.90;1.00;;;;;;10403628;28;20220;-78
2023/07/22 23:22:24;;;;;;;5.93;3.03;;;14.00;1.00;;;;;;10439213;28;20200;-85
2023/07/22 23:27:46;;;;;;;6.35;4.43;;;14.00;99.90;;;;;;10442137;28;20197;-87
2023/07/22 23:33:08;;;;;;;6.15;4.20;;;13.90;99.90;;;;;;10442579;28;20432;-86
2023/07/22 23:38:31;;;;;;;6.60;4.22;;;13.90;1.00;;;;;;10441047;28;20305;-79
2023/07/22 23:43:52;;;;;;;6.03;4.43;;;13.80;1.00;;;;;;10457025;28;20423;-78
2023/07/22 23:49:13;;;;;;;5.60;4.00;;;13.80;1.00;;;;;;10440479;28;20199;-79
2023/07/22 23:54:35;;;;;;;5.07;4.05;;;13.80;1.00;;;;;;10412302;28;20238;-77
2023/07/22 23:59:56;;;;;;;6.43;4.50;;;13.80;1.00;;;;;;10415437;28;20215;-78
